Fresno (FAT/KFAT)

Map

Destinations

Information

Location
Fresno, CA
Local Time
10:04 / 10:04 am
GMT Time
18:04 / 6:04 pm
Gates
3A
No FAA reported delays
METAR KFAT 191753Z 09003KT 3SM HZ FEW150 SCT200 SCT250 11/08 A3017 RMK AO2 TWR VIS 4 SLP215 VIS E-SE 2 T01110083 10111 20050 58002
TAF KFAT 191742Z 1918/2018 VRB02KT P6SM SCT200 TEMPO 1918/1919 4SM BR FM191900 VRB03KT P6SM SCT200 FM192300 32007KT P6SM BKN200